College Mound, Missouri
Current Conditions -  °F | °C
As of 8:55 PM on Wednesday 22 Oct 2014 (Local Time) from KIRK Reporting Station
Clear Clear  
Wind Chill: 45°   Ceiling: Unl
Heat Index: 49°   Visibility: 10mi
Dew Point: 42°   Wind: 9mph
Humidity: 77%   Direction: 120°ESE
Pressure: 30.19"   Gusts: NA
Location:  39.6493°N, 92.4492°W
Report Text: KIRK 230155Z AUTO 12008KT 10SM CLR 09/06 A3019 RMK AO2 SLP230 T00940056
Loading
Personal Weather Stations






























Interactive Weather Map
Tropical Storm Tracking
New forecast layout! Learn more

10-Day Weather Forecast

Advertisements
Track Severe Weather on mobile